sensor_id;sensor_type;location;lat;lon;timestamp;P1;durP1;ratioP1;P2;durP2;ratioP2
14251;SDS011;7210;51.502;10.722;2023-05-10T00:02:03;11.00;;;7.53;;
14251;SDS011;7210;51.502;10.722;2023-05-10T00:04:31;7.50;;;6.50;;
14251;SDS011;7210;51.502;10.722;2023-05-10T00:06:58;8.50;;;6.67;;
14251;SDS011;7210;51.502;10.722;2023-05-10T00:09:38;9.23;;;6.17;;
14251;SDS011;7210;51.502;10.722;2023-05-10T00:12:05;6.03;;;5.53;;
14251;SDS011;7210;51.502;10.722;2023-05-10T00:14:50;6.77;;;6.07;;
14251;SDS011;7210;51.502;10.722;2023-05-10T00:17:18;6.33;;;5.73;;
14251;SDS011;7210;51.502;10.722;2023-05-10T00:22:40;6.17;;;5.60;;
14251;SDS011;7210;51.502;10.722;2023-05-10T00:25:08;9.20;;;6.50;;
14251;SDS011;7210;51.502;10.722;2023-05-10T00:27:38;7.13;;;6.43;;
14251;SDS011;7210;51.502;10.722;2023-05-10T00:30:05;7.00;;;6.30;;
14251;SDS011;7210;51.502;10.722;2023-05-10T00:32:35;7.00;;;6.40;;
14251;SDS011;7210;51.502;10.722;2023-05-10T00:35:20;7.73;;;6.80;;
14251;SDS011;7210;51.502;10.722;2023-05-10T00:37:47;7.63;;;6.93;;
14251;SDS011;7210;51.502;10.722;2023-05-10T00:40:15;7.20;;;6.50;;
14251;SDS011;7210;51.502;10.722;2023-05-10T00:42:50;6.97;;;6.27;;
14251;SDS011;7210;51.502;10.722;2023-05-10T00:45:20;7.17;;;6.57;;
14251;SDS011;7210;51.502;10.722;2023-05-10T00:47:48;7.80;;;7.10;;
14251;SDS011;7210;51.502;10.722;2023-05-10T00:50:17;7.33;;;6.63;;
14251;SDS011;7210;51.502;10.722;2023-05-10T00:53:02;7.60;;;6.33;;
14251;SDS011;7210;51.502;10.722;2023-05-10T00:55:29;9.07;;;7.30;;
14251;SDS011;7210;51.502;10.722;2023-05-10T00:58:08;9.67;;;7.83;;
14251;SDS011;7210;51.502;10.722;2023-05-10T01:00:35;8.50;;;7.17;;
14251;SDS011;7210;51.502;10.722;2023-05-10T01:03:05;9.03;;;7.80;;
14251;SDS011;7210;51.502;10.722;2023-05-10T01:05:33;8.83;;;8.00;;
14251;SDS011;7210;51.502;10.722;2023-05-10T01:08:08;9.97;;;7.90;;
14251;SDS011;7210;51.502;10.722;2023-05-10T01:10:35;8.00;;;7.30;;
14251;SDS011;7210;51.502;10.722;2023-05-10T01:13:02;8.63;;;7.80;;
14251;SDS011;7210;51.502;10.722;2023-05-10T01:15:30;8.80;;;8.00;;
14251;SDS011;7210;51.502;10.722;2023-05-10T01:17:58;9.00;;;8.10;;
14251;SDS011;7210;51.502;10.722;2023-05-10T01:20:35;7.30;;;6.60;;
14251;SDS011;7210;51.502;10.722;2023-05-10T01:30:25;7.37;;;6.67;;
14251;SDS011;7210;51.502;10.722;2023-05-10T01:33:24;8.37;;;7.13;;
14251;SDS011;7210;51.502;10.722;2023-05-10T01:36:03;7.97;;;7.27;;
14251;SDS011;7210;51.502;10.722;2023-05-10T01:38:41;10.97;;;8.00;;
14251;SDS011;7210;51.502;10.722;2023-05-10T01:41:17;9.00;;;7.67;;
14251;SDS011;7210;51.502;10.722;2023-05-10T01:43:56;8.37;;;7.47;;
14251;SDS011;7210;51.502;10.722;2023-05-10T01:46:36;8.40;;;7.43;;
14251;SDS011;7210;51.502;10.722;2023-05-10T01:52:08;9.00;;;8.10;;
14251;SDS011;7210;51.502;10.722;2023-05-10T01:54:58;10.73;;;7.87;;
14251;SDS011;7210;51.502;10.722;2023-05-10T01:57:33;8.13;;;7.33;;
14251;SDS011;7210;51.502;10.722;2023-05-10T02:00:08;8.17;;;7.17;;
14251;SDS011;7210;51.502;10.722;2023-05-10T02:02:44;8.93;;;6.97;;
14251;SDS011;7210;51.502;10.722;2023-05-10T02:08:57;8.30;;;7.50;;
14251;SDS011;7210;51.502;10.722;2023-05-10T02:11:25;8.27;;;7.47;;
14251;SDS011;7210;51.502;10.722;2023-05-10T02:13:54;8.83;;;7.40;;
14251;SDS011;7210;51.502;10.722;2023-05-10T02:19:43;8.40;;;7.53;;
14251;SDS011;7210;51.502;10.722;2023-05-10T02:22:13;8.67;;;7.80;;
14251;SDS011;7210;51.502;10.722;2023-05-10T02:24:49;8.30;;;7.60;;
14251;SDS011;7210;51.502;10.722;2023-05-10T02:27:18;8.67;;;7.80;;
14251;SDS011;7210;51.502;10.722;2023-05-10T02:29:47;8.00;;;7.30;;
14251;SDS011;7210;51.502;10.722;2023-05-10T02:32:16;7.77;;;7.07;;
14251;SDS011;7210;51.502;10.722;2023-05-10T02:34:45;8.50;;;7.70;;
14251;SDS011;7210;51.502;10.722;2023-05-10T02:37:18;8.10;;;7.40;;
14251;SDS011;7210;51.502;10.722;2023-05-10T02:39:47;8.07;;;7.30;;
14251;SDS011;7210;51.502;10.722;2023-05-10T02:42:18;8.27;;;7.50;;
14251;SDS011;7210;51.502;10.722;2023-05-10T02:44:52;8.30;;;7.47;;
14251;SDS011;7210;51.502;10.722;2023-05-10T02:47:25;8.50;;;7.77;;
14251;SDS011;7210;51.502;10.722;2023-05-10T02:49:53;8.47;;;7.67;;
14251;SDS011;7210;51.502;10.722;2023-05-10T02:52:21;8.73;;;7.93;;
14251;SDS011;7210;51.502;10.722;2023-05-10T02:54:55;8.60;;;7.77;;
14251;SDS011;7210;51.502;10.722;2023-05-10T02:57:30;8.93;;;7.80;;
14251;SDS011;7210;51.502;10.722;2023-05-10T03:00:00;7.57;;;6.70;;
14251;SDS011;7210;51.502;10.722;2023-05-10T03:02:28;8.73;;;7.60;;
14251;SDS011;7210;51.502;10.722;2023-05-10T03:04:56;7.60;;;7.00;;
14251;SDS011;7210;51.502;10.722;2023-05-10T03:07:30;9.67;;;8.50;;
14251;SDS011;7210;51.502;10.722;2023-05-10T03:10:00;8.50;;;7.10;;
14251;SDS011;7210;51.502;10.722;2023-05-10T03:12:32;8.83;;;8.03;;
14251;SDS011;7210;51.502;10.722;2023-05-10T03:15:19;8.80;;;7.57;;
14251;SDS011;7210;51.502;10.722;2023-05-10T03:18:01;8.23;;;7.53;;
14251;SDS011;7210;51.502;10.722;2023-05-10T03:20:42;8.57;;;7.87;;
14251;SDS011;7210;51.502;10.722;2023-05-10T03:23:18;8.40;;;7.60;;
14251;SDS011;7210;51.502;10.722;2023-05-10T03:25:54;8.27;;;7.47;;
14251;SDS011;7210;51.502;10.722;2023-05-10T03:28:23;8.90;;;8.00;;
14251;SDS011;7210;51.502;10.722;2023-05-10T03:30:53;9.07;;;8.17;;
14251;SDS011;7210;51.502;10.722;2023-05-10T03:33:24;9.67;;;8.77;;
14251;SDS011;7210;51.502;10.722;2023-05-10T03:35:52;10.17;;;8.90;;
14251;SDS011;7210;51.502;10.722;2023-05-10T03:38:24;9.30;;;8.20;;
14251;SDS011;7210;51.502;10.722;2023-05-10T03:40:51;9.40;;;8.37;;
14251;SDS011;7210;51.502;10.722;2023-05-10T03:43:19;9.93;;;9.03;;
14251;SDS011;7210;51.502;10.722;2023-05-10T03:45:47;8.70;;;8.00;;
14251;SDS011;7210;51.502;10.722;2023-05-10T03:48:14;8.93;;;7.87;;
14251;SDS011;7210;51.502;10.722;2023-05-10T03:50:42;9.13;;;8.30;;
14251;SDS011;7210;51.502;10.722;2023-05-10T03:53:09;8.93;;;8.10;;
14251;SDS011;7210;51.502;10.722;2023-05-10T03:55:36;9.20;;;8.13;;
14251;SDS011;7210;51.502;10.722;2023-05-10T03:58:03;8.83;;;8.00;;
14251;SDS011;7210;51.502;10.722;2023-05-10T04:00:33;8.90;;;8.13;;
14251;SDS011;7210;51.502;10.722;2023-05-10T04:03:00;9.37;;;8.57;;
14251;SDS011;7210;51.502;10.722;2023-05-10T04:05:28;9.43;;;8.53;;
14251;SDS011;7210;51.502;10.722;2023-05-10T04:08:00;10.37;;;9.23;;
14251;SDS011;7210;51.502;10.722;2023-05-10T04:10:29;8.70;;;7.90;;
14251;SDS011;7210;51.502;10.722;2023-05-10T04:12:56;8.37;;;7.57;;
14251;SDS011;7210;51.502;10.722;2023-05-10T04:15:23;8.73;;;8.03;;
14251;SDS011;7210;51.502;10.722;2023-05-10T04:17:55;8.77;;;7.87;;
14251;SDS011;7210;51.502;10.722;2023-05-10T04:20:22;8.23;;;7.57;;
14251;SDS011;7210;51.502;10.722;2023-05-10T04:22:50;8.37;;;7.57;;
14251;SDS011;7210;51.502;10.722;2023-05-10T04:25:17;9.30;;;8.40;;
14251;SDS011;7210;51.502;10.722;2023-05-10T04:27:44;8.13;;;7.30;;
14251;SDS011;7210;51.502;10.722;2023-05-10T04:30:11;9.97;;;7.77;;
14251;SDS011;7210;51.502;10.722;2023-05-10T04:32:42;8.90;;;8.10;;
14251;SDS011;7210;51.502;10.722;2023-05-10T04:35:10;8.63;;;7.73;;
14251;SDS011;7210;51.502;10.722;2023-05-10T04:37:39;9.10;;;8.30;;
14251;SDS011;7210;51.502;10.722;2023-05-10T04:40:07;7.77;;;6.90;;
14251;SDS011;7210;51.502;10.722;2023-05-10T04:42:36;8.50;;;7.73;;
14251;SDS011;7210;51.502;10.722;2023-05-10T04:45:03;8.70;;;7.90;;
14251;SDS011;7210;51.502;10.722;2023-05-10T04:47:32;9.57;;;8.70;;
14251;SDS011;7210;51.502;10.722;2023-05-10T04:49:59;8.80;;;8.00;;
14251;SDS011;7210;51.502;10.722;2023-05-10T04:52:27;9.27;;;8.37;;
14251;SDS011;7210;51.502;10.722;2023-05-10T04:55:00;10.20;;;7.97;;
14251;SDS011;7210;51.502;10.722;2023-05-10T04:57:27;8.93;;;7.70;;
14251;SDS011;7210;51.502;10.722;2023-05-10T04:59:54;9.10;;;8.20;;
14251;SDS011;7210;51.502;10.722;2023-05-10T05:02:21;8.87;;;8.07;;
14251;SDS011;7210;51.502;10.722;2023-05-10T05:04:48;8.03;;;7.10;;
14251;SDS011;7210;51.502;10.722;2023-05-10T05:07:16;8.33;;;7.53;;
14251;SDS011;7210;51.502;10.722;2023-05-10T05:09:44;8.17;;;7.20;;
14251;SDS011;7210;51.502;10.722;2023-05-10T05:12:11;8.10;;;7.40;;
14251;SDS011;7210;51.502;10.722;2023-05-10T05:14:39;8.13;;;7.33;;
14251;SDS011;7210;51.502;10.722;2023-05-10T05:17:06;8.40;;;7.60;;
14251;SDS011;7210;51.502;10.722;2023-05-10T05:19:35;7.53;;;6.83;;
14251;SDS011;7210;51.502;10.722;2023-05-10T05:22:02;7.60;;;6.80;;
14251;SDS011;7210;51.502;10.722;2023-05-10T05:24:34;6.97;;;6.33;;
14251;SDS011;7210;51.502;10.722;2023-05-10T05:27:07;7.10;;;6.20;;
14251;SDS011;7210;51.502;10.722;2023-05-10T05:29:34;7.50;;;6.83;;
14251;SDS011;7210;51.502;10.722;2023-05-10T05:32:03;8.27;;;7.57;;
14251;SDS011;7210;51.502;10.722;2023-05-10T05:34:31;8.53;;;7.60;;
14251;SDS011;7210;51.502;10.722;2023-05-10T05:36:59;8.90;;;7.17;;
14251;SDS011;7210;51.502;10.722;2023-05-10T05:39:27;7.17;;;6.43;;
14251;SDS011;7210;51.502;10.722;2023-05-10T05:41:55;7.50;;;6.63;;
14251;SDS011;7210;51.502;10.722;2023-05-10T05:44:23;8.30;;;6.87;;
14251;SDS011;7210;51.502;10.722;2023-05-10T05:46:51;9.33;;;6.73;;
14251;SDS011;7210;51.502;10.722;2023-05-10T05:49:19;7.37;;;5.90;;
14251;SDS011;7210;51.502;10.722;2023-05-10T05:51:47;8.10;;;6.40;;
14251;SDS011;7210;51.502;10.722;2023-05-10T05:54:16;7.00;;;6.27;;
14251;SDS011;7210;51.502;10.722;2023-05-10T05:56:43;8.47;;;6.70;;
14251;SDS011;7210;51.502;10.722;2023-05-10T05:59:10;7.30;;;6.60;;
14251;SDS011;7210;51.502;10.722;2023-05-10T06:01:39;8.40;;;6.90;;
14251;SDS011;7210;51.502;10.722;2023-05-10T06:04:06;7.20;;;6.50;;
14251;SDS011;7210;51.502;10.722;2023-05-10T06:06:34;6.97;;;6.27;;
14251;SDS011;7210;51.502;10.722;2023-05-10T06:09:01;7.63;;;6.37;;
14251;SDS011;7210;51.502;10.722;2023-05-10T06:11:29;7.47;;;6.63;;
14251;SDS011;7210;51.502;10.722;2023-05-10T06:13:57;7.40;;;6.50;;
14251;SDS011;7210;51.502;10.722;2023-05-10T06:16:24;6.67;;;5.83;;
14251;SDS011;7210;51.502;10.722;2023-05-10T06:18:53;6.77;;;6.07;;
14251;SDS011;7210;51.502;10.722;2023-05-10T06:21:20;6.93;;;6.13;;
14251;SDS011;7210;51.502;10.722;2023-05-10T06:23:47;7.13;;;6.43;;
14251;SDS011;7210;51.502;10.722;2023-05-10T06:26:14;7.00;;;5.93;;
14251;SDS011;7210;51.502;10.722;2023-05-10T06:28:42;11.27;;;8.47;;
14251;SDS011;7210;51.502;10.722;2023-05-10T06:31:09;13.70;;;7.13;;
14251;SDS011;7210;51.502;10.722;2023-05-10T06:33:37;7.77;;;6.57;;
14251;SDS011;7210;51.502;10.722;2023-05-10T06:36:06;11.37;;;6.43;;
14251;SDS011;7210;51.502;10.722;2023-05-10T06:38:33;12.17;;;6.20;;
14251;SDS011;7210;51.502;10.722;2023-05-10T06:41:00;11.83;;;6.90;;
14251;SDS011;7210;51.502;10.722;2023-05-10T06:43:28;9.23;;;6.37;;
14251;SDS011;7210;51.502;10.722;2023-05-10T06:45:55;9.17;;;7.10;;
14251;SDS011;7210;51.502;10.722;2023-05-10T06:48:22;8.20;;;7.27;;
14251;SDS011;7210;51.502;10.722;2023-05-10T06:50:49;8.63;;;7.13;;
14251;SDS011;7210;51.502;10.722;2023-05-10T06:53:18;10.17;;;8.03;;
14251;SDS011;7210;51.502;10.722;2023-05-10T06:55:45;9.50;;;8.20;;
14251;SDS011;7210;51.502;10.722;2023-05-10T06:58:12;10.17;;;9.03;;
14251;SDS011;7210;51.502;10.722;2023-05-10T07:00:39;9.37;;;8.13;;
14251;SDS011;7210;51.502;10.722;2023-05-10T07:03:08;9.47;;;7.40;;
14251;SDS011;7210;51.502;10.722;2023-05-10T07:05:36;10.67;;;8.30;;
14251;SDS011;7210;51.502;10.722;2023-05-10T07:08:03;10.37;;;7.93;;
14251;SDS011;7210;51.502;10.722;2023-05-10T07:10:32;10.30;;;9.10;;
14251;SDS011;7210;51.502;10.722;2023-05-10T07:12:59;9.70;;;8.80;;
14251;SDS011;7210;51.502;10.722;2023-05-10T07:15:26;9.50;;;8.27;;
14251;SDS011;7210;51.502;10.722;2023-05-10T07:17:54;9.50;;;7.90;;
14251;SDS011;7210;51.502;10.722;2023-05-10T07:20:21;9.17;;;8.27;;
14251;SDS011;7210;51.502;10.722;2023-05-10T07:22:48;10.47;;;8.50;;
14251;SDS011;7210;51.502;10.722;2023-05-10T07:25:15;9.60;;;8.63;;
14251;SDS011;7210;51.502;10.722;2023-05-10T07:27:44;46.47;;;24.83;;
14251;SDS011;7210;51.502;10.722;2023-05-10T07:30:13;10.83;;;9.77;;
14251;SDS011;7210;51.502;10.722;2023-05-10T07:32:41;9.90;;;7.80;;
14251;SDS011;7210;51.502;10.722;2023-05-10T07:35:08;9.43;;;8.40;;
14251;SDS011;7210;51.502;10.722;2023-05-10T07:37:35;9.20;;;8.40;;
14251;SDS011;7210;51.502;10.722;2023-05-10T07:40:03;8.07;;;7.30;;
14251;SDS011;7210;51.502;10.722;2023-05-10T07:42:31;7.90;;;7.20;;
14251;SDS011;7210;51.502;10.722;2023-05-10T07:45:00;7.93;;;7.17;;
14251;SDS011;7210;51.502;10.722;2023-05-10T07:47:27;7.27;;;6.57;;
14251;SDS011;7210;51.502;10.722;2023-05-10T07:49:54;7.60;;;6.90;;
14251;SDS011;7210;51.502;10.722;2023-05-10T07:52:21;7.13;;;6.53;;
14251;SDS011;7210;51.502;10.722;2023-05-10T07:54:48;8.00;;;7.20;;
14251;SDS011;7210;51.502;10.722;2023-05-10T07:57:15;7.37;;;6.67;;
14251;SDS011;7210;51.502;10.722;2023-05-10T07:59:44;8.07;;;7.27;;
14251;SDS011;7210;51.502;10.722;2023-05-10T08:02:13;9.17;;;8.37;;
14251;SDS011;7210;51.502;10.722;2023-05-10T08:04:40;7.93;;;7.13;;
14251;SDS011;7210;51.502;10.722;2023-05-10T08:07:08;8.40;;;7.60;;
14251;SDS011;7210;51.502;10.722;2023-05-10T08:09:37;7.90;;;7.30;;
14251;SDS011;7210;51.502;10.722;2023-05-10T08:12:05;8.07;;;7.43;;
14251;SDS011;7210;51.502;10.722;2023-05-10T08:14:32;7.90;;;7.23;;
14251;SDS011;7210;51.502;10.722;2023-05-10T08:17:01;13.23;;;11.87;;
14251;SDS011;7210;51.502;10.722;2023-05-10T08:19:30;8.83;;;7.93;;
14251;SDS011;7210;51.502;10.722;2023-05-10T08:21:57;9.47;;;8.57;;
14251;SDS011;7210;51.502;10.722;2023-05-10T08:24:24;7.67;;;7.07;;
14251;SDS011;7210;51.502;10.722;2023-05-10T08:26:52;8.13;;;6.90;;
14251;SDS011;7210;51.502;10.722;2023-05-10T08:29:19;7.47;;;6.77;;
14251;SDS011;7210;51.502;10.722;2023-05-10T08:31:46;7.87;;;7.07;;
14251;SDS011;7210;51.502;10.722;2023-05-10T08:34:13;7.50;;;6.80;;
14251;SDS011;7210;51.502;10.722;2023-05-10T08:36:42;7.80;;;7.10;;
14251;SDS011;7210;51.502;10.722;2023-05-10T08:39:09;9.97;;;8.40;;
14251;SDS011;7210;51.502;10.722;2023-05-10T08:41:36;8.30;;;7.60;;
14251;SDS011;7210;51.502;10.722;2023-05-10T08:44:06;10.17;;;9.37;;
14251;SDS011;7210;51.502;10.722;2023-05-10T08:46:35;10.23;;;8.33;;
14251;SDS011;7210;51.502;10.722;2023-05-10T08:49:09;10.37;;;9.37;;
14251;SDS011;7210;51.502;10.722;2023-05-10T08:51:47;10.83;;;9.73;;
14251;SDS011;7210;51.502;10.722;2023-05-10T08:54:21;9.83;;;8.93;;
14251;SDS011;7210;51.502;10.722;2023-05-10T08:56:49;9.53;;;8.60;;
14251;SDS011;7210;51.502;10.722;2023-05-10T08:59:16;9.10;;;8.33;;
14251;SDS011;7210;51.502;10.722;2023-05-10T09:01:48;9.90;;;8.90;;
14251;SDS011;7210;51.502;10.722;2023-05-10T09:04:19;9.97;;;9.07;;
14251;SDS011;7210;51.502;10.722;2023-05-10T09:06:48;10.27;;;9.20;;
14251;SDS011;7210;51.502;10.722;2023-05-10T09:09:15;10.63;;;9.73;;
14251;SDS011;7210;51.502;10.722;2023-05-10T09:11:44;10.70;;;9.70;;
14251;SDS011;7210;51.502;10.722;2023-05-10T09:14:11;11.33;;;10.17;;
14251;SDS011;7210;51.502;10.722;2023-05-10T09:16:42;11.13;;;9.87;;
14251;SDS011;7210;51.502;10.722;2023-05-10T09:19:09;11.00;;;10.00;;
14251;SDS011;7210;51.502;10.722;2023-05-10T09:21:37;10.53;;;9.53;;
14251;SDS011;7210;51.502;10.722;2023-05-10T09:24:06;10.70;;;9.73;;
14251;SDS011;7210;51.502;10.722;2023-05-10T09:26:34;10.43;;;9.53;;
14251;SDS011;7210;51.502;10.722;2023-05-10T09:29:11;9.60;;;8.70;;
14251;SDS011;7210;51.502;10.722;2023-05-10T09:31:45;9.77;;;8.90;;
14251;SDS011;7210;51.502;10.722;2023-05-10T09:34:16;9.60;;;8.70;;
14251;SDS011;7210;51.502;10.722;2023-05-10T09:36:52;8.83;;;8.10;;
14251;SDS011;7210;51.502;10.722;2023-05-10T09:39:31;9.13;;;8.30;;
14251;SDS011;7210;51.502;10.722;2023-05-10T09:42:01;9.17;;;8.37;;
14251;SDS011;7210;51.502;10.722;2023-05-10T09:44:31;9.90;;;8.07;;
14251;SDS011;7210;51.502;10.722;2023-05-10T09:46:59;7.87;;;7.13;;
14251;SDS011;7210;51.502;10.722;2023-05-10T09:49:27;8.00;;;7.30;;
14251;SDS011;7210;51.502;10.722;2023-05-10T09:52:01;7.93;;;7.10;;
14251;SDS011;7210;51.502;10.722;2023-05-10T09:54:31;8.40;;;7.70;;
14251;SDS011;7210;51.502;10.722;2023-05-10T09:57:00;8.77;;;7.00;;
14251;SDS011;7210;51.502;10.722;2023-05-10T09:59:27;8.00;;;7.30;;
14251;SDS011;7210;51.502;10.722;2023-05-10T10:01:56;8.37;;;7.57;;
14251;SDS011;7210;51.502;10.722;2023-05-10T10:04:25;7.97;;;7.27;;
14251;SDS011;7210;51.502;10.722;2023-05-10T10:07:00;7.47;;;6.87;;
14251;SDS011;7210;51.502;10.722;2023-05-10T10:09:29;7.77;;;7.10;;
14251;SDS011;7210;51.502;10.722;2023-05-10T10:11:59;7.80;;;7.10;;
14251;SDS011;7210;51.502;10.722;2023-05-10T10:14:27;6.80;;;6.00;;
14251;SDS011;7210;51.502;10.722;2023-05-10T10:17:00;7.13;;;6.53;;
14251;SDS011;7210;51.502;10.722;2023-05-10T10:19:27;6.70;;;6.10;;
14251;SDS011;7210;51.502;10.722;2023-05-10T10:21:56;7.17;;;6.57;;
14251;SDS011;7210;51.502;10.722;2023-05-10T10:24:24;6.63;;;6.03;;
14251;SDS011;7210;51.502;10.722;2023-05-10T10:26:52;7.20;;;6.60;;
14251;SDS011;7210;51.502;10.722;2023-05-10T10:29:34;7.23;;;6.63;;
14251;SDS011;7210;51.502;10.722;2023-05-10T10:32:17;6.77;;;6.17;;
14251;SDS011;7210;51.502;10.722;2023-05-10T10:34:54;5.67;;;5.23;;
14251;SDS011;7210;51.502;10.722;2023-05-10T10:37:22;5.00;;;4.60;;
14251;SDS011;7210;51.502;10.722;2023-05-10T10:40:22;4.93;;;4.40;;
14251;SDS011;7210;51.502;10.722;2023-05-10T10:42:55;4.80;;;4.40;;
14251;SDS011;7210;51.502;10.722;2023-05-10T10:45:24;4.40;;;4.00;;
14251;SDS011;7210;51.502;10.722;2023-05-10T10:50:48;4.07;;;3.70;;
14251;SDS011;7210;51.502;10.722;2023-05-10T10:53:25;4.10;;;3.30;;
14251;SDS011;7210;51.502;10.722;2023-05-10T10:56:02;3.70;;;3.40;;
14251;SDS011;7210;51.502;10.722;2023-05-10T10:58:36;3.03;;;2.83;;
14251;SDS011;7210;51.502;10.722;2023-05-10T11:01:12;4.07;;;3.07;;
14251;SDS011;7210;51.502;10.722;2023-05-10T11:03:54;2.60;;;2.40;;
14251;SDS011;7210;51.502;10.722;2023-05-10T11:06:46;2.77;;;2.57;;
14251;SDS011;7210;51.502;10.722;2023-05-10T11:09:13;3.03;;;2.83;;
14251;SDS011;7210;51.502;10.722;2023-05-10T11:14:27;2.57;;;1.90;;
14251;SDS011;7210;51.502;10.722;2023-05-10T11:16:58;2.23;;;2.07;;
14251;SDS011;7210;51.502;10.722;2023-05-10T11:19:27;2.23;;;2.00;;
14251;SDS011;7210;51.502;10.722;2023-05-10T11:24:40;2.27;;;2.07;;
14251;SDS011;7210;51.502;10.722;2023-05-10T11:27:30;2.87;;;1.93;;
14251;SDS011;7210;51.502;10.722;2023-05-10T11:29:59;1.73;;;1.63;;
14251;SDS011;7210;51.502;10.722;2023-05-10T11:32:26;1.63;;;1.10;;
14251;SDS011;7210;51.502;10.722;2023-05-10T11:34:54;1.77;;;1.07;;
14251;SDS011;7210;51.502;10.722;2023-05-10T11:37:21;1.00;;;0.90;;
14251;SDS011;7210;51.502;10.722;2023-05-10T11:39:48;2.33;;;0.90;;
14251;SDS011;7210;51.502;10.722;2023-05-10T11:42:15;1.63;;;0.73;;
14251;SDS011;7210;51.502;10.722;2023-05-10T11:44:45;2.00;;;0.90;;
14251;SDS011;7210;51.502;10.722;2023-05-10T11:47:14;1.50;;;1.00;;
14251;SDS011;7210;51.502;10.722;2023-05-10T11:49:43;1.73;;;1.00;;
14251;SDS011;7210;51.502;10.722;2023-05-10T11:52:10;0.83;;;0.80;;
14251;SDS011;7210;51.502;10.722;2023-05-10T11:54:38;2.07;;;0.90;;
14251;SDS011;7210;51.502;10.722;2023-05-10T11:57:12;1.20;;;1.00;;
14251;SDS011;7210;51.502;10.722;2023-05-10T11:59:40;2.03;;;1.10;;
14251;SDS011;7210;51.502;10.722;2023-05-10T12:02:07;2.50;;;1.27;;
14251;SDS011;7210;51.502;10.722;2023-05-10T12:04:35;1.10;;;1.00;;
14251;SDS011;7210;51.502;10.722;2023-05-10T12:07:03;1.17;;;1.07;;
14251;SDS011;7210;51.502;10.722;2023-05-10T12:09:31;1.33;;;1.07;;
14251;SDS011;7210;51.502;10.722;2023-05-10T12:11:58;1.20;;;1.10;;
14251;SDS011;7210;51.502;10.722;2023-05-10T12:14:26;1.40;;;0.90;;
14251;SDS011;7210;51.502;10.722;2023-05-10T12:16:53;1.23;;;1.13;;
14251;SDS011;7210;51.502;10.722;2023-05-10T12:19:23;0.80;;;0.80;;
14251;SDS011;7210;51.502;10.722;2023-05-10T12:21:51;1.40;;;0.97;;
14251;SDS011;7210;51.502;10.722;2023-05-10T12:24:19;1.23;;;1.00;;
14251;SDS011;7210;51.502;10.722;2023-05-10T12:26:46;1.10;;;1.00;;
14251;SDS011;7210;51.502;10.722;2023-05-10T12:29:14;1.10;;;1.00;;
14251;SDS011;7210;51.502;10.722;2023-05-10T12:31:50;1.07;;;0.97;;
14251;SDS011;7210;51.502;10.722;2023-05-10T12:34:22;1.73;;;0.80;;
14251;SDS011;7210;51.502;10.722;2023-05-10T12:36:58;1.10;;;1.00;;
14251;SDS011;7210;51.502;10.722;2023-05-10T12:39:25;1.33;;;1.23;;
14251;SDS011;7210;51.502;10.722;2023-05-10T12:42:04;1.57;;;1.00;;
14251;SDS011;7210;51.502;10.722;2023-05-10T12:44:32;1.30;;;1.20;;
14251;SDS011;7210;51.502;10.722;2023-05-10T12:46:59;1.10;;;1.00;;
14251;SDS011;7210;51.502;10.722;2023-05-10T12:49:27;1.23;;;0.90;;
14251;SDS011;7210;51.502;10.722;2023-05-10T12:51:55;0.70;;;0.70;;
14251;SDS011;7210;51.502;10.722;2023-05-10T12:54:25;0.97;;;0.87;;
14251;SDS011;7210;51.502;10.722;2023-05-10T12:56:53;0.70;;;0.70;;
14251;SDS011;7210;51.502;10.722;2023-05-10T12:59:20;0.83;;;0.80;;
14251;SDS011;7210;51.502;10.722;2023-05-10T13:01:47;0.90;;;0.80;;
14251;SDS011;7210;51.502;10.722;2023-05-10T13:04:14;0.93;;;0.93;;
14251;SDS011;7210;51.502;10.722;2023-05-10T13:06:42;0.97;;;0.90;;
14251;SDS011;7210;51.502;10.722;2023-05-10T13:09:09;0.90;;;0.90;;
14251;SDS011;7210;51.502;10.722;2023-05-10T13:11:38;1.97;;;0.70;;
14251;SDS011;7210;51.502;10.722;2023-05-10T13:14:05;0.77;;;0.77;;
14251;SDS011;7210;51.502;10.722;2023-05-10T13:16:32;0.70;;;0.70;;
14251;SDS011;7210;51.502;10.722;2023-05-10T13:18:59;2.60;;;0.77;;
14251;SDS011;7210;51.502;10.722;2023-05-10T13:21:26;1.00;;;0.70;;
14251;SDS011;7210;51.502;10.722;2023-05-10T13:23:54;0.70;;;0.70;;
14251;SDS011;7210;51.502;10.722;2023-05-10T13:26:21;0.70;;;0.70;;
14251;SDS011;7210;51.502;10.722;2023-05-10T13:28:50;1.07;;;0.80;;
14251;SDS011;7210;51.502;10.722;2023-05-10T13:31:17;0.97;;;0.70;;
14251;SDS011;7210;51.502;10.722;2023-05-10T13:33:45;2.30;;;0.90;;
14251;SDS011;7210;51.502;10.722;2023-05-10T13:36:12;1.23;;;0.80;;
14251;SDS011;7210;51.502;10.722;2023-05-10T13:38:42;1.00;;;0.90;;
14251;SDS011;7210;51.502;10.722;2023-05-10T13:41:12;0.70;;;0.60;;
14251;SDS011;7210;51.502;10.722;2023-05-10T13:43:39;0.90;;;0.80;;
14251;SDS011;7210;51.502;10.722;2023-05-10T13:46:07;1.50;;;0.80;;
14251;SDS011;7210;51.502;10.722;2023-05-10T13:48:35;1.20;;;0.90;;
14251;SDS011;7210;51.502;10.722;2023-05-10T13:51:02;1.97;;;0.70;;
14251;SDS011;7210;51.502;10.722;2023-05-10T13:53:29;0.80;;;0.80;;
14251;SDS011;7210;51.502;10.722;2023-05-10T13:55:57;1.07;;;0.97;;
14251;SDS011;7210;51.502;10.722;2023-05-10T13:58:24;1.13;;;1.03;;
14251;SDS011;7210;51.502;10.722;2023-05-10T14:00:51;1.00;;;1.00;;
14251;SDS011;7210;51.502;10.722;2023-05-10T14:03:20;1.47;;;1.00;;
14251;SDS011;7210;51.502;10.722;2023-05-10T14:05:47;1.07;;;0.93;;
14251;SDS011;7210;51.502;10.722;2023-05-10T14:08:14;1.13;;;0.93;;
14251;SDS011;7210;51.502;10.722;2023-05-10T14:10:41;0.83;;;0.80;;
14251;SDS011;7210;51.502;10.722;2023-05-10T14:13:12;1.13;;;0.70;;
14251;SDS011;7210;51.502;10.722;2023-05-10T14:15:39;1.23;;;0.90;;
14251;SDS011;7210;51.502;10.722;2023-05-10T14:18:06;1.27;;;1.03;;
14251;SDS011;7210;51.502;10.722;2023-05-10T14:20:35;1.00;;;0.90;;
14251;SDS011;7210;51.502;10.722;2023-05-10T14:23:02;1.10;;;1.00;;
14251;SDS011;7210;51.502;10.722;2023-05-10T14:25:29;2.00;;;1.00;;
14251;SDS011;7210;51.502;10.722;2023-05-10T14:27:56;0.90;;;0.80;;
14251;SDS011;7210;51.502;10.722;2023-05-10T14:30:23;1.03;;;0.80;;
14251;SDS011;7210;51.502;10.722;2023-05-10T14:32:50;1.07;;;0.70;;
14251;SDS011;7210;51.502;10.722;2023-05-10T14:35:19;1.43;;;0.73;;
14251;SDS011;7210;51.502;10.722;2023-05-10T14:37:47;1.47;;;0.83;;
14251;SDS011;7210;51.502;10.722;2023-05-10T14:40:14;1.00;;;0.90;;
14251;SDS011;7210;51.502;10.722;2023-05-10T14:42:42;2.50;;;0.90;;
14251;SDS011;7210;51.502;10.722;2023-05-10T14:45:09;1.07;;;0.90;;
14251;SDS011;7210;51.502;10.722;2023-05-10T14:47:37;1.33;;;0.90;;
14251;SDS011;7210;51.502;10.722;2023-05-10T14:50:05;1.87;;;1.00;;
14251;SDS011;7210;51.502;10.722;2023-05-10T14:52:33;1.30;;;1.10;;
14251;SDS011;7210;51.502;10.722;2023-05-10T14:55:02;1.40;;;0.97;;
14251;SDS011;7210;51.502;10.722;2023-05-10T14:57:29;1.10;;;1.00;;
14251;SDS011;7210;51.502;10.722;2023-05-10T14:59:57;1.10;;;0.97;;
14251;SDS011;7210;51.502;10.722;2023-05-10T15:02:24;1.17;;;1.10;;
14251;SDS011;7210;51.502;10.722;2023-05-10T15:04:51;1.10;;;1.00;;
14251;SDS011;7210;51.502;10.722;2023-05-10T15:07:24;1.27;;;0.90;;
14251;SDS011;7210;51.502;10.722;2023-05-10T15:09:51;1.63;;;0.90;;
14251;SDS011;7210;51.502;10.722;2023-05-10T15:12:20;2.60;;;0.90;;
14251;SDS011;7210;51.502;10.722;2023-05-10T15:14:47;1.23;;;0.90;;
14251;SDS011;7210;51.502;10.722;2023-05-10T15:17:14;2.07;;;1.20;;
14251;SDS011;7210;51.502;10.722;2023-05-10T15:19:42;0.90;;;0.80;;
14251;SDS011;7210;51.502;10.722;2023-05-10T15:22:10;2.10;;;0.70;;
14251;SDS011;7210;51.502;10.722;2023-05-10T15:24:42;0.80;;;0.80;;
14251;SDS011;7210;51.502;10.722;2023-05-10T15:27:09;2.17;;;0.90;;
14251;SDS011;7210;51.502;10.722;2023-05-10T15:29:38;2.67;;;0.90;;